Terminal Aerodrome Forecast
Issued by NWS

Home | Current Version | Previous Version | Text Only | Print | Product List | Glossary On
Versions: 1 2 3 4 5 6 7 8 9 10 11 12 13 14 15 16 17 18 19 20 21
917
FTUS41 KCAR 281720
TAFFVE
TAF
KFVE 281720Z 2818/2918 28004KT 6SM SHRA VCTS SCT025CB BKN045
     FM290000 VRB03KT P6SM BKN060=

USA.gov is the U.S. government's official web portal to all federal, state and local government web resources and services.